createdAt,value
2017-11-30T00:01:58.456Z,82.70
2017-11-30T00:04:24.667Z,82.70
2017-11-30T00:06:50.872Z,82.60
2017-11-30T00:09:17.084Z,82.10
2017-11-30T00:11:44.056Z,81.60
2017-11-30T00:14:10.343Z,81.60
2017-11-30T00:16:37.335Z,81.90
2017-11-30T00:19:03.588Z,81.90
2017-11-30T00:21:29.812Z,82.20
2017-11-30T00:23:56.104Z,81.70
2017-11-30T00:26:22.438Z,81.20
2017-11-30T00:28:48.776Z,80.70
2017-11-30T00:31:15.050Z,80.90
2017-11-30T00:33:41.286Z,81.30
2017-11-30T00:36:08.284Z,80.90
2017-11-30T00:38:34.536Z,80.80
2017-11-30T00:41:00.801Z,80.60
2017-11-30T00:43:30.742Z,80.50
2017-11-30T00:45:57.064Z,80.40
2017-11-30T00:48:23.364Z,79.80
2017-11-30T00:50:49.615Z,78.70
2017-11-30T00:53:16.648Z,80.50
2017-11-30T00:55:43.672Z,80.80
2017-11-30T00:58:09.953Z,80.80
2017-11-30T01:00:36.204Z,81.20
2017-11-30T01:03:02.490Z,81.00
2017-11-30T01:05:29.520Z,80.60
2017-11-30T01:07:56.502Z,82.20
2017-11-30T01:10:22.722Z,81.50
2017-11-30T01:12:49.652Z,80.50
2017-11-30T01:15:16.627Z,81.80
2017-11-30T01:17:42.796Z,81.80
2017-11-30T01:20:09.048Z,81.70
2017-11-30T01:22:35.300Z,81.10
2017-11-30T01:25:01.533Z,80.60
2017-11-30T01:27:27.791Z,80.90
2017-11-30T01:29:53.965Z,81.20
2017-11-30T01:32:20.191Z,80.70
2017-11-30T01:34:46.433Z,80.50
2017-11-30T01:37:13.447Z,80.70
2017-11-30T01:39:39.676Z,80.70
2017-11-30T01:42:05.872Z,80.60
2017-11-30T01:44:32.073Z,81.10
2017-11-30T01:46:58.266Z,82.00
2017-11-30T01:49:24.483Z,81.30
2017-11-30T01:51:50.677Z,80.80
2017-11-30T01:54:16.999Z,81.80
2017-11-30T01:56:43.260Z,81.10
2017-11-30T01:59:09.499Z,81.40
2017-11-30T02:01:35.739Z,81.70
2017-11-30T02:04:02.016Z,81.10
2017-11-30T02:06:28.274Z,81.80
2017-11-30T02:08:54.466Z,80.90
2017-11-30T02:11:20.695Z,81.80
2017-11-30T02:13:46.926Z,81.20
2017-11-30T02:16:13.115Z,81.30
2017-11-30T02:18:40.097Z,82.10
2017-11-30T02:21:06.364Z,82.10
2017-11-30T02:23:32.610Z,83.10
2017-11-30T02:25:58.881Z,82.70
2017-11-30T02:28:25.167Z,82.80
2017-11-30T02:30:51.419Z,82.50
2017-11-30T02:33:18.498Z,83.00
2017-11-30T02:35:44.798Z,82.90
2017-11-30T02:38:11.825Z,82.50
2017-11-30T02:40:38.092Z,82.50
2017-11-30T02:43:04.337Z,82.20
2017-11-30T02:45:30.624Z,83.50
2017-11-30T02:47:57.717Z,82.80
2017-11-30T02:50:24.037Z,82.80
2017-11-30T02:52:50.330Z,82.10
2017-11-30T02:55:17.337Z,81.00
2017-11-30T02:57:43.623Z,81.10
2017-11-30T03:00:10.618Z,80.40
2017-11-30T03:02:36.944Z,80.40
2017-11-30T03:05:03.234Z,80.60
2017-11-30T03:07:29.513Z,82.00
2017-11-30T03:09:55.805Z,81.30
2017-11-30T03:12:22.095Z,80.90
2017-11-30T03:14:49.107Z,81.40
2017-11-30T03:17:15.362Z,81.30
2017-11-30T03:19:42.732Z,82.10
2017-11-30T03:22:09.766Z,83.40
2017-11-30T03:24:36.065Z,83.40
2017-11-30T03:27:02.269Z,83.20
2017-11-30T03:29:28.568Z,82.90
2017-11-30T03:31:54.839Z,82.90
2017-11-30T03:34:21.136Z,83.60
2017-11-30T03:36:50.252Z,84.90
2017-11-30T03:39:16.474Z,83.90
2017-11-30T03:41:42.753Z,84.60
2017-11-30T03:44:09.077Z,83.40
2017-11-30T03:46:35.323Z,82.70
2017-11-30T03:49:01.591Z,83.30
2017-11-30T03:51:27.833Z,83.30
2017-11-30T03:53:54.059Z,83.60
2017-11-30T03:56:20.266Z,84.30
2017-11-30T03:58:47.334Z,84.70
2017-11-30T04:01:13.637Z,84.70
2017-11-30T04:03:40.670Z,83.70
2017-11-30T04:06:07.610Z,83.60
2017-11-30T04:08:33.897Z,83.60
2017-11-30T04:11:00.168Z,84.80
2017-11-30T04:13:26.330Z,83.70
2017-11-30T04:15:53.297Z,83.80
2017-11-30T04:18:19.608Z,83.70
2017-11-30T04:20:45.888Z,83.10
2017-11-30T04:23:12.124Z,82.40
2017-11-30T04:25:38.372Z,82.00
2017-11-30T04:28:04.625Z,82.20
2017-11-30T04:30:31.584Z,82.60
2017-11-30T04:32:57.840Z,82.50
2017-11-30T04:35:24.096Z,83.00
2017-11-30T04:37:50.370Z,82.10
2017-11-30T04:40:16.586Z,82.50
2017-11-30T04:42:42.822Z,82.10
2017-11-30T04:45:09.088Z,81.50
2017-11-30T04:47:35.319Z,81.60
2017-11-30T04:50:01.603Z,81.60
2017-11-30T04:52:27.817Z,81.30
2017-11-30T04:54:54.854Z,80.50
2017-11-30T04:57:21.900Z,81.20
2017-11-30T04:59:48.171Z,80.70
2017-11-30T05:02:14.412Z,81.70
2017-11-30T05:04:40.707Z,82.60
2017-11-30T05:07:06.965Z,81.90
2017-11-30T05:09:33.208Z,81.70
2017-11-30T05:11:59.459Z,82.20
2017-11-30T05:14:25.733Z,81.70
2017-11-30T05:16:52.687Z,82.50
2017-11-30T05:19:18.942Z,82.50
2017-11-30T05:21:45.216Z,82.40
2017-11-30T05:24:12.204Z,83.10
2017-11-30T05:26:38.531Z,83.10
2017-11-30T05:29:04.803Z,82.40
2017-11-30T05:31:31.794Z,82.20
2017-11-30T05:33:57.986Z,82.20
2017-11-30T05:36:24.953Z,81.90
2017-11-30T05:38:51.924Z,81.50
2017-11-30T05:41:18.123Z,81.50
2017-11-30T05:43:45.067Z,83.30
2017-11-30T05:46:12.040Z,83.50
2017-11-30T05:48:38.281Z,83.50
2017-11-30T05:51:04.510Z,84.20
2017-11-30T05:53:30.688Z,83.20
2017-11-30T05:55:56.909Z,83.30
2017-11-30T05:58:23.928Z,83.20
2017-11-30T06:00:50.147Z,83.20
2017-11-30T06:03:16.464Z,82.80
2017-11-30T06:05:42.708Z,82.70
2017-11-30T06:08:08.952Z,82.20
2017-11-30T06:10:35.187Z,82.20
2017-11-30T06:13:01.449Z,82.00
2017-11-30T06:15:28.488Z,82.70
2017-11-30T06:17:55.482Z,82.60
2017-11-30T06:20:21.746Z,82.60
2017-11-30T06:22:48.673Z,83.20
2017-11-30T06:25:14.929Z,83.20
2017-11-30T06:27:41.980Z,82.60
2017-11-30T06:30:08.959Z,84.20
2017-11-30T06:32:35.221Z,84.20
2017-11-30T06:35:01.501Z,84.30
2017-11-30T06:37:27.753Z,84.00
2017-11-30T06:39:53.972Z,83.90
2017-11-30T06:42:20.280Z,83.90
2017-11-30T06:44:47.242Z,84.00
2017-11-30T06:47:13.449Z,84.00
2017-11-30T06:49:40.449Z,83.60
2017-11-30T06:52:06.710Z,83.50
2017-11-30T06:54:33.724Z,83.60
2017-11-30T06:57:00.008Z,83.50
2017-11-30T06:59:26.256Z,83.20
2017-11-30T07:01:52.553Z,83.40
2017-11-30T07:04:19.559Z,84.80
2017-11-30T07:06:45.773Z,84.00
2017-11-30T07:09:12.008Z,83.60
2017-11-30T07:11:38.543Z,83.20
2017-11-30T07:14:04.757Z,83.40
2017-11-30T07:16:31.021Z,83.30
2017-11-30T07:18:57.323Z,84.40
2017-11-30T07:21:23.563Z,83.40
2017-11-30T07:23:49.793Z,83.30
2017-11-30T07:26:16.006Z,82.60
2017-11-30T07:28:42.303Z,82.00
2017-11-30T07:31:09.360Z,83.00
2017-11-30T07:33:35.612Z,83.00
2017-11-30T07:36:01.864Z,83.50
2017-11-30T07:38:28.101Z,84.20
2017-11-30T07:40:55.120Z,84.50
2017-11-30T07:43:21.371Z,84.50
2017-11-30T07:45:47.857Z,83.90
2017-11-30T07:48:14.813Z,83.60
2017-11-30T07:50:41.020Z,83.60
2017-11-30T07:53:08.088Z,81.90
2017-11-30T07:55:35.266Z,81.90
2017-11-30T07:58:01.521Z,83.00
2017-11-30T08:00:27.788Z,82.40
2017-11-30T08:02:54.118Z,82.50
2017-11-30T08:05:20.408Z,82.80
2017-11-30T08:07:46.656Z,82.30
2017-11-30T08:10:12.907Z,81.20
2017-11-30T08:12:39.140Z,81.00
2017-11-30T08:15:06.169Z,82.90
2017-11-30T08:17:33.241Z,83.70
2017-11-30T08:19:59.553Z,83.70
2017-11-30T08:22:26.524Z,82.80
2017-11-30T08:24:52.831Z,82.80
2017-11-30T08:27:19.905Z,83.20
2017-11-30T08:29:46.199Z,83.20
2017-11-30T08:32:13.174Z,82.20
2017-11-30T08:34:39.407Z,82.10
2017-11-30T08:37:05.683Z,82.10
2017-11-30T08:39:31.942Z,83.20
2017-11-30T08:41:59.004Z,82.60
2017-11-30T08:44:25.668Z,82.60
2017-11-30T08:46:51.938Z,81.50
2017-11-30T08:49:18.183Z,82.20
2017-11-30T08:51:45.236Z,82.60
2017-11-30T08:54:12.313Z,81.30
2017-11-30T08:56:38.621Z,81.40
2017-11-30T08:59:04.907Z,82.00
2017-11-30T09:01:31.150Z,82.00
2017-11-30T09:03:58.169Z,80.80
2017-11-30T09:06:24.474Z,80.70
2017-11-30T09:08:50.751Z,81.90
2017-11-30T09:11:17.684Z,83.10
2017-11-30T09:13:44.003Z,82.20
2017-11-30T09:16:10.274Z,81.70
2017-11-30T09:18:37.338Z,81.20
2017-11-30T09:21:03.663Z,81.20
2017-11-30T09:23:29.922Z,81.60
2017-11-30T09:25:56.158Z,81.70
2017-11-30T09:28:22.493Z,82.60
2017-11-30T09:30:48.762Z,83.30
2017-11-30T09:33:15.720Z,83.80
2017-11-30T09:35:42.688Z,82.80
2017-11-30T09:38:08.950Z,82.80
2017-11-30T09:40:35.258Z,82.30
2017-11-30T09:43:01.531Z,83.00
2017-11-30T09:45:28.551Z,82.90
2017-11-30T09:47:54.781Z,82.90
2017-11-30T09:50:21.087Z,83.30
2017-11-30T09:52:47.403Z,83.10
2017-11-30T09:55:14.352Z,84.30
2017-11-30T09:57:40.683Z,84.30
2017-11-30T10:00:06.948Z,84.40
2017-11-30T10:02:33.159Z,84.20
2017-11-30T10:04:59.420Z,84.70
2017-11-30T10:07:25.693Z,84.70
2017-11-30T10:09:51.981Z,84.50
2017-11-30T10:12:18.192Z,85.10
2017-11-30T10:14:44.453Z,84.70
2017-11-30T10:17:10.702Z,84.90
2017-11-30T10:19:37.657Z,85.40
2017-11-30T10:22:04.746Z,85.40
2017-11-30T10:24:30.976Z,85.40
2017-11-30T10:26:57.146Z,84.40
2017-11-30T10:29:24.168Z,84.90
2017-11-30T10:31:50.415Z,84.90
2017-11-30T10:34:17.447Z,84.70
2017-11-30T10:36:43.747Z,85.50
2017-11-30T10:39:10.016Z,84.40
2017-11-30T10:41:37.052Z,85.30
2017-11-30T10:44:03.288Z,85.20
2017-11-30T10:46:29.686Z,82.80
2017-11-30T10:48:55.921Z,84.60
2017-11-30T10:51:22.185Z,84.60
2017-11-30T10:53:49.145Z,84.80
2017-11-30T10:56:16.094Z,86.60
2017-11-30T10:58:42.406Z,86.60
2017-11-30T11:01:09.464Z,84.90
2017-11-30T11:03:36.478Z,86.50
2017-11-30T11:06:03.058Z,86.40
2017-11-30T11:08:29.341Z,86.70
2017-11-30T11:10:55.564Z,84.80
2017-11-30T11:13:21.883Z,86.50
2017-11-30T11:15:54.672Z,84.90
2017-11-30T11:18:20.915Z,85.50
2017-11-30T11:20:47.210Z,85.00
2017-11-30T11:23:13.533Z,84.70
2017-11-30T11:25:39.767Z,86.70
2017-11-30T11:28:06.063Z,87.40
2017-11-30T11:30:32.996Z,84.20
2017-11-30T11:32:59.191Z,84.20
2017-11-30T11:35:25.481Z,83.60
2017-11-30T11:37:51.733Z,82.60
2017-11-30T11:40:18.048Z,82.20
2017-11-30T11:42:44.358Z,80.60
2017-11-30T11:45:11.322Z,80.60
2017-11-30T11:47:37.572Z,80.50
2017-11-30T11:50:03.822Z,80.10
2017-11-30T11:52:30.067Z,80.40
2017-11-30T11:54:56.325Z,79.80
2017-11-30T11:57:22.550Z,76.40
2017-11-30T11:59:49.519Z,74.40
2017-11-30T12:02:15.746Z,74.30
2017-11-30T12:04:41.986Z,73.80
2017-11-30T12:07:08.260Z,72.40
2017-11-30T12:09:34.543Z,72.90
2017-11-30T12:12:00.836Z,73.60
2017-11-30T12:14:27.778Z,74.10
2017-11-30T12:16:54.732Z,70.10
2017-11-30T12:19:21.752Z,68.80
2017-11-30T12:21:48.774Z,69.90
2017-11-30T12:24:15.068Z,69.80
2017-11-30T12:26:41.291Z,69.90
2017-11-30T12:29:08.228Z,70.90
2017-11-30T12:31:35.174Z,66.20
2017-11-30T12:34:02.175Z,66.20
2017-11-30T12:36:28.468Z,66.10
2017-11-30T12:38:54.701Z,65.70
2017-11-30T12:41:20.929Z,69.70
2017-11-30T12:43:47.229Z,66.10
2017-11-30T12:46:14.202Z,68.50
2017-11-30T12:48:40.417Z,68.30
2017-11-30T12:51:06.648Z,69.30
2017-11-30T12:53:33.652Z,70.50
2017-11-30T12:55:59.933Z,70.50
2017-11-30T12:58:26.199Z,71.90
2017-11-30T13:00:52.495Z,71.30
2017-11-30T13:03:18.815Z,72.80
2017-11-30T13:05:45.370Z,74.10
2017-11-30T13:08:11.567Z,75.00
2017-11-30T13:10:38.563Z,77.20
2017-11-30T13:13:04.872Z,77.20
2017-11-30T13:15:31.162Z,76.90
2017-11-30T13:17:58.153Z,77.50
2017-11-30T13:20:24.501Z,76.90
2017-11-30T13:22:50.740Z,76.30
2017-11-30T13:25:17.045Z,77.10
2017-11-30T13:27:43.292Z,75.60
2017-11-30T13:30:09.597Z,76.90
2017-11-30T13:32:35.850Z,77.00
2017-11-30T13:35:02.105Z,77.90
2017-11-30T13:37:28.350Z,77.50
2017-11-30T13:39:55.402Z,79.40
2017-11-30T13:42:22.402Z,79.60
2017-11-30T13:44:48.595Z,79.60
2017-11-30T13:47:14.801Z,80.00
2017-11-30T13:49:41.002Z,80.80
2017-11-30T13:52:07.257Z,81.40
2017-11-30T13:54:34.240Z,83.10
2017-11-30T13:57:00.490Z,83.00
2017-11-30T13:59:26.706Z,83.00
2017-11-30T14:01:52.927Z,83.10
2017-11-30T14:04:19.144Z,82.30
2017-11-30T14:06:45.330Z,84.00
2017-11-30T14:09:11.548Z,84.30
2017-11-30T14:11:37.758Z,83.60
2017-11-30T14:14:04.030Z,80.90
2017-11-30T14:16:30.969Z,83.20
2017-11-30T14:18:57.202Z,83.10
2017-11-30T14:21:24.225Z,82.40
2017-11-30T14:23:50.487Z,82.60
2017-11-30T14:26:17.475Z,82.80
2017-11-30T14:28:43.710Z,82.80
2017-11-30T14:31:09.988Z,81.50
2017-11-30T14:33:37.023Z,81.00
2017-11-30T14:36:03.272Z,81.70
2017-11-30T14:38:29.491Z,80.90
2017-11-30T14:40:55.763Z,80.90
2017-11-30T14:43:22.187Z,81.60
2017-11-30T14:45:48.398Z,81.10
2017-11-30T14:48:14.646Z,81.30
2017-11-30T14:50:40.933Z,82.10
2017-11-30T14:53:07.915Z,82.20
2017-11-30T14:55:34.166Z,82.20
2017-11-30T14:58:00.351Z,82.40
2017-11-30T15:00:27.358Z,82.10
2017-11-30T15:02:53.604Z,81.10
2017-11-30T15:05:19.866Z,81.80
2017-11-30T15:07:46.159Z,82.50
2017-11-30T15:10:12.426Z,80.50
2017-11-30T15:12:38.707Z,80.70
2017-11-30T15:15:04.930Z,81.30
2017-11-30T15:17:31.128Z,81.00
2017-11-30T15:19:57.306Z,81.80
2017-11-30T15:22:23.511Z,81.30
2017-11-30T15:24:49.743Z,82.10
2017-11-30T15:27:16.010Z,81.60
2017-11-30T15:29:42.957Z,82.60
2017-11-30T15:32:09.948Z,81.80
2017-11-30T15:34:36.123Z,81.70
2017-11-30T15:37:03.082Z,83.20
2017-11-30T15:39:29.631Z,83.20
2017-11-30T15:41:55.825Z,83.40
2017-11-30T15:44:22.755Z,81.10
2017-11-30T15:46:49.020Z,81.80
2017-11-30T15:49:15.246Z,82.40
2017-11-30T15:51:41.527Z,82.20
2017-11-30T15:54:07.808Z,82.00
2017-11-30T15:56:34.076Z,82.00
2017-11-30T15:59:00.311Z,81.80
2017-11-30T16:01:26.598Z,82.00
2017-11-30T16:03:52.882Z,82.60
2017-11-30T16:06:19.163Z,82.50
2017-11-30T16:08:45.378Z,83.00
2017-11-30T16:11:12.446Z,82.10
2017-11-30T16:13:38.619Z,82.10
2017-11-30T16:16:04.878Z,82.40
2017-11-30T16:18:31.856Z,81.70
2017-11-30T16:20:58.117Z,81.80
2017-11-30T16:23:24.353Z,82.00
2017-11-30T16:25:50.666Z,81.60
2017-11-30T16:28:16.921Z,82.70
2017-11-30T16:30:43.892Z,81.90
2017-11-30T16:33:10.778Z,82.00
2017-11-30T16:35:37.039Z,82.10
2017-11-30T16:38:03.942Z,81.70
2017-11-30T16:40:30.167Z,81.30
2017-11-30T16:42:56.403Z,83.20
2017-11-30T16:45:22.645Z,83.30
2017-11-30T16:47:48.846Z,83.30
2017-11-30T16:50:15.095Z,83.90
2017-11-30T16:52:41.375Z,84.60
2017-11-30T16:55:07.627Z,84.20
2017-11-30T16:57:33.966Z,84.40
2017-11-30T17:00:00.230Z,84.60
2017-11-30T17:02:26.862Z,84.60
2017-11-30T17:04:53.131Z,84.00
2017-11-30T17:07:19.427Z,83.80
2017-11-30T17:09:45.727Z,83.90
2017-11-30T17:12:11.962Z,82.90
2017-11-30T17:14:38.246Z,83.70
2017-11-30T17:17:05.232Z,84.60
2017-11-30T17:19:31.451Z,84.60
2017-11-30T17:21:57.735Z,85.30
2017-11-30T17:24:24.761Z,84.70
2017-11-30T17:26:50.974Z,84.70
2017-11-30T17:29:17.201Z,83.60
2017-11-30T17:31:43.395Z,84.30
2017-11-30T17:34:09.668Z,83.00
2017-11-30T17:36:35.931Z,84.20
2017-11-30T17:39:02.979Z,82.80
2017-11-30T17:41:30.054Z,82.60
2017-11-30T17:43:56.338Z,82.50
2017-11-30T17:46:22.631Z,83.10
2017-11-30T17:48:48.948Z,82.60
2017-11-30T17:51:15.182Z,82.80
2017-11-30T17:53:41.434Z,83.30
2017-11-30T17:56:07.677Z,83.70
2017-11-30T17:58:33.903Z,82.30
2017-11-30T18:01:00.120Z,82.00
2017-11-30T18:03:26.332Z,83.80
2017-11-30T18:05:52.540Z,83.50
2017-11-30T18:08:18.792Z,83.60
2017-11-30T18:10:46.012Z,84.00
2017-11-30T18:13:12.992Z,82.60
2017-11-30T18:15:39.239Z,82.70
2017-11-30T18:18:06.292Z,82.10
2017-11-30T18:20:32.668Z,81.90
2017-11-30T18:22:58.950Z,83.20
2017-11-30T18:25:25.169Z,83.00
2017-11-30T18:27:51.389Z,82.60
2017-11-30T18:30:17.609Z,82.80
2017-11-30T18:32:43.874Z,82.40
2017-11-30T18:35:10.120Z,82.50
2017-11-30T18:37:37.177Z,83.90
2017-11-30T18:40:04.138Z,83.20
2017-11-30T18:42:30.362Z,83.10
2017-11-30T18:44:57.606Z,82.90
2017-11-30T18:47:24.601Z,83.30
2017-11-30T18:49:50.795Z,83.30
2017-11-30T18:52:17.091Z,82.80
2017-11-30T18:54:44.039Z,82.00
2017-11-30T18:57:11.003Z,83.80
2017-11-30T18:59:37.268Z,83.60
2017-11-30T19:02:03.510Z,84.00
2017-11-30T19:04:29.803Z,84.00
2017-11-30T19:06:56.682Z,84.20
2017-11-30T19:09:22.996Z,84.60
2017-11-30T19:11:49.212Z,84.90
2017-11-30T19:14:15.455Z,82.80
2017-11-30T19:16:41.736Z,81.40
2017-11-30T19:19:08.771Z,83.20
2017-11-30T19:21:35.771Z,83.80
2017-11-30T19:24:02.058Z,83.80
2017-11-30T19:26:29.059Z,83.20
2017-11-30T19:28:55.276Z,83.10
2017-11-30T19:31:21.688Z,83.60
2017-11-30T19:33:47.907Z,83.60
2017-11-30T19:36:14.895Z,84.00
2017-11-30T19:38:41.169Z,83.90
2017-11-30T19:41:08.134Z,84.80
2017-11-30T19:43:35.167Z,84.20
2017-11-30T19:46:02.193Z,84.50
2017-11-30T19:48:28.394Z,84.50
2017-11-30T19:50:54.625Z,84.50
2017-11-30T19:53:20.892Z,84.20
2017-11-30T19:55:47.140Z,84.40
2017-11-30T19:58:14.170Z,84.80
2017-11-30T20:00:41.196Z,83.40
2017-11-30T20:03:07.413Z,83.40
2017-11-30T20:05:33.669Z,84.00
2017-11-30T20:07:59.916Z,84.60
2017-11-30T20:10:26.895Z,84.40
2017-11-30T20:12:53.326Z,84.40
2017-11-30T20:15:19.568Z,85.00
2017-11-30T20:17:45.825Z,85.00
2017-11-30T20:20:13.361Z,84.80
2017-11-30T20:22:40.288Z,84.80
2017-11-30T20:25:06.524Z,84.80
2017-11-30T20:27:32.812Z,84.40
2017-11-30T20:29:59.824Z,84.80
2017-11-30T20:32:26.083Z,84.70
2017-11-30T20:34:53.086Z,85.60
2017-11-30T20:37:19.358Z,85.60
2017-11-30T20:39:45.558Z,85.90
2017-11-30T20:42:11.884Z,85.00
2017-11-30T20:44:38.155Z,85.40
2017-11-30T20:47:05.242Z,85.10
2017-11-30T20:49:31.568Z,85.10
2017-11-30T20:51:57.806Z,85.90
2017-11-30T20:54:24.052Z,86.30
2017-11-30T20:56:50.295Z,85.30
2017-11-30T20:59:17.266Z,85.10
2017-11-30T21:01:44.223Z,85.60
2017-11-30T21:04:10.512Z,85.60
2017-11-30T21:06:36.796Z,86.00
2017-11-30T21:09:03.198Z,85.60
2017-11-30T21:11:30.215Z,85.80
2017-11-30T21:13:56.502Z,85.60
2017-11-30T21:16:22.737Z,85.90
2017-11-30T21:18:48.948Z,85.50
2017-11-30T21:21:15.171Z,86.00
2017-11-30T21:23:41.397Z,86.00
2017-11-30T21:26:08.402Z,85.30
2017-11-30T21:28:34.635Z,85.30
2017-11-30T21:31:00.865Z,85.40
2017-11-30T21:33:27.903Z,85.30
2017-11-30T21:35:54.112Z,85.30
2017-11-30T21:38:20.428Z,85.30
2017-11-30T21:40:46.651Z,85.40
2017-11-30T21:43:12.830Z,85.60
2017-11-30T21:45:39.123Z,85.90
2017-11-30T21:48:05.316Z,85.40
2017-11-30T21:50:32.327Z,86.50
2017-11-30T21:52:58.605Z,86.50
2017-11-30T21:55:24.850Z,85.90
2017-11-30T21:57:51.083Z,86.00
2017-11-30T22:00:22.201Z,85.70
2017-11-30T22:02:48.448Z,85.30
2017-11-30T22:05:14.750Z,85.60
2017-11-30T22:07:40.970Z,86.20
2017-11-30T22:10:08.007Z,85.60
2017-11-30T22:12:35.011Z,85.60
2017-11-30T22:15:01.316Z,85.60
2017-11-30T22:17:28.534Z,85.80
2017-11-30T22:19:54.847Z,85.80
2017-11-30T22:22:21.085Z,85.50
2017-11-30T22:24:48.131Z,86.30
2017-11-30T22:27:14.415Z,85.60
2017-11-30T22:29:40.677Z,85.70
2017-11-30T22:32:06.936Z,86.10
2017-11-30T22:34:33.955Z,85.60
2017-11-30T22:37:02.997Z,85.50
2017-11-30T22:39:35.848Z,86.60
2017-11-30T22:42:02.425Z,87.20
2017-11-30T22:44:28.668Z,85.50
2017-11-30T22:46:54.964Z,84.50
2017-11-30T22:49:22.007Z,86.90
2017-11-30T22:51:52.993Z,86.40
2017-11-30T22:54:19.593Z,86.40
2017-11-30T22:56:46.567Z,85.00
2017-11-30T22:59:12.845Z,84.90
2017-11-30T23:01:39.008Z,84.00
2017-11-30T23:04:05.315Z,84.30
2017-11-30T23:06:32.262Z,86.30
2017-11-30T23:09:00.457Z,86.80
2017-11-30T23:11:29.153Z,86.60
2017-11-30T23:13:55.431Z,86.00
2017-11-30T23:16:33.120Z,86.50
2017-11-30T23:19:00.300Z,85.60
2017-11-30T23:21:27.346Z,85.70
2017-11-30T23:23:57.415Z,85.50
2017-11-30T23:26:23.743Z,85.50
2017-11-30T23:28:50.017Z,85.70
2017-11-30T23:31:16.311Z,86.60
2017-11-30T23:33:46.105Z,86.30
2017-11-30T23:36:19.481Z,86.70
2017-11-30T23:38:45.761Z,86.50
2017-11-30T23:41:11.996Z,85.90
2017-11-30T23:43:38.473Z,86.60
2017-11-30T23:46:04.706Z,86.50
2017-11-30T23:48:32.951Z,86.00
2017-11-30T23:50:59.926Z,86.00
2017-11-30T23:53:26.204Z,86.00
2017-11-30T23:55:52.394Z,86.20
2017-11-30T23:58:18.582Z,86.90
